Terminal Aerodrome Forecast
Issued by NWS

Home | Current Version | Previous Version | Graphics & Text | Print | Product List | Glossary On
Versions: 1 2 3 4 5 6 7 8 9 10 11 12 13 14 15 16 17 18 19
694
FTUS43 KBIS 151131
TAFMOT
TAF
KMOT 151131Z 1512/1612 21005KT P6SM VCSH SCT018 OVC090
      TEMPO 1512/1515 BKN018 OVC090
     FM151500 21006KT P6SM OVC060
     FM151700 23007KT P6SM VCSH OVC045
     FM152000 26008KT P6SM VCSH OVC035
     FM160200 27007KT P6SM OVC030
     FM160700 29011KT P6SM OVC020
     FM160800 30011KT P6SM OVC015=

USA.gov is the U.S. government's official web portal to all federal, state and local government web resources and services.